SPCL/PCL METAR and TAF weather

Enter ICAO airport designator
Station Type Date Time Source
SPCL METAR 2020/09/27 02:00 UTC NOAA

SPCL 270200Z 32002KT 9999 SCT020 BKN080 27/23 Q1009 RMK PP000


Station Type Date Time Source
SPCL Decoded METAR 2020/09/27 02:00 UTC NOAA

Pucallpa, Peru (SPCL) 08-25S 074-36W 149M
Sep 26, 2020 - 10:00 PM EDT / 2020.09.27 0200 UTC
Wind: from the NW (320 degrees) at 2 MPH (2 KT):0
Visibility: greater than 7 mile(s):0
Sky conditions: mostly cloudy
Temperature: 80 F (27 C)
Dew Point: 73 F (23 C)
Relative Humidity: 78%
Pressure (altimeter): 29.80 in. Hg (1009 hPa)
ob: SPCL 270200Z 32002KT 9999 SCT020 BKN080 27/23 Q1009 RMK PP000
cycle: 2

Station Type Date Time Source
SPCL TAF 2020/09/26 18:33 UTC NOAA

TAF SPCL 261700Z 2618/2718 36007KT 9999 SCT020 TX34/2620Z TN23/2711Z
TEMPO 2622/2702 12010KT 4000 SHRA BKN015 FEW025TCU
TEMPO 2709/2712 00000KT 1000 BCFG BKN005

Example: see airport list